Time;durP1;ratioP1;P1;durP2;ratioP2;P2;SDS_P1;SDS_P2;PMS_P1;PMS_P2;Temp;Humidity;BMP_temperature;BMP_pressure;BME280_temperature;BME280_humidity;BME280_pressure;Samples;Min_cycle;Max_cycle;Signal;HPM_P1;HPM_P2
2023/07/03 00:00:00;;;;;;;9.82;1.23;;;16.40;99.90;;;;;;5017125;28;20164;-80
2023/07/03 00:02:26;;;;;;;9.68;1.10;;;16.40;99.90;;;;;;5002856;28;20050;-80
2023/07/03 00:04:52;;;;;;;7.22;1.50;;;16.30;99.90;;;;;;5019707;28;20037;-80
2023/07/03 00:07:17;;;;;;;11.00;2.08;;;16.30;99.90;;;;;;5017888;28;20486;-80
2023/07/03 00:09:44;;;;;;;7.13;1.20;;;16.30;99.90;;;;;;5024783;28;20490;-80
2023/07/03 00:12:11;;;;;;;15.85;2.03;;;16.30;99.90;;;;;;5019269;28;20049;-80
2023/07/03 00:14:38;;;;;;;14.00;2.15;;;16.30;99.90;;;;;;5018559;28;20037;-80
2023/07/03 00:17:05;;;;;;;7.70;1.13;;;16.30;99.90;;;;;;5020151;28;20141;-80
2023/07/03 00:19:30;;;;;;;12.68;1.42;;;16.30;99.90;;;;;;5017987;28;20029;-80
2023/07/03 00:22:00;;;;;;;8.48;1.63;;;16.30;99.90;;;;;;5004217;28;20032;-79
2023/07/03 00:24:28;;;;;;;12.02;1.30;;;16.30;99.90;;;;;;5007544;28;20092;-80
2023/07/03 00:26:55;;;;;;;12.25;1.88;;;16.20;99.90;;;;;;5005031;28;20124;-80
2023/07/03 00:29:21;;;;;;;12.23;1.70;;;16.20;99.90;;;;;;5004725;28;20029;-79
2023/07/03 00:31:46;;;;;;;9.88;1.58;;;16.20;99.90;;;;;;5015491;28;20052;-79
2023/07/03 00:34:12;;;;;;;10.75;1.45;;;16.20;99.90;;;;;;5033711;28;20049;-79
2023/07/03 00:36:38;;;;;;;5.20;0.95;;;16.20;99.90;;;;;;5021005;28;20489;-78
2023/07/03 00:39:04;;;;;;;5.53;0.75;;;16.20;99.90;;;;;;5023342;28;20022;-79
2023/07/03 00:41:31;;;;;;;6.32;1.08;;;16.20;99.90;;;;;;5004240;28;20057;-79
2023/07/03 00:43:56;;;;;;;4.32;0.90;;;16.20;99.90;;;;;;5017999;28;20033;-79
2023/07/03 00:46:24;;;;;;;10.20;1.20;;;16.10;99.90;;;;;;5019945;28;20068;-79
2023/07/03 00:48:50;;;;;;;7.35;1.30;;;16.10;99.90;;;;;;5022805;28;20478;-79
2023/07/03 00:51:17;;;;;;;10.93;1.70;;;16.10;99.90;;;;;;5021256;28;20144;-80
2023/07/03 00:53:44;;;;;;;11.15;1.33;;;16.10;99.90;;;;;;5020289;28;20033;-79
2023/07/03 00:56:11;;;;;;;7.72;1.75;;;16.10;99.90;;;;;;5024561;28;20030;-79
2023/07/03 00:58:38;;;;;;;6.05;1.00;;;16.00;99.90;;;;;;5022504;28;20026;-78
2023/07/03 01:01:17;;;;;;;6.35;0.80;;;16.00;99.90;;;;;;5023412;28;20108;-79
2023/07/03 01:03:53;;;;;;;6.07;0.93;;;16.00;99.90;;;;;;5003672;28;20391;-79
2023/07/03 01:06:23;;;;;;;11.77;1.60;;;16.00;99.90;;;;;;5005371;28;20048;-78
2023/07/03 01:08:54;;;;;;;7.75;0.90;;;16.00;99.90;;;;;;5022787;28;20033;-79
2023/07/03 01:11:22;;;;;;;6.88;1.00;;;15.90;99.90;;;;;;5030217;28;20392;-79
2023/07/03 01:13:52;;;;;;;4.65;0.70;;;15.90;99.90;;;;;;5010471;28;20024;-78
2023/07/03 01:16:19;;;;;;;7.47;1.08;;;15.90;99.90;;;;;;5026969;28;20065;-78
2023/07/03 01:18:46;;;;;;;4.30;0.70;;;15.80;99.90;;;;;;5024083;28;20053;-79
2023/07/03 01:21:19;;;;;;;7.00;1.10;;;15.80;99.90;;;;;;5023350;28;20064;-79
2023/07/03 01:24:10;;;;;;;8.77;1.00;;;15.80;99.90;;;;;;5005850;28;20371;-79
2023/07/03 01:26:38;;;;;;;10.50;1.45;;;15.80;99.90;;;;;;5004179;28;20076;-79
2023/07/03 01:29:05;;;;;;;13.32;1.30;;;15.80;99.90;;;;;;5011593;28;20025;-80
2023/07/03 01:31:35;;;;;;;6.50;0.93;;;15.70;99.90;;;;;;5010138;28;20029;-80
2023/07/03 01:34:02;;;;;;;5.72;0.93;;;15.70;99.90;;;;;;5026638;28;20057;-79
2023/07/03 01:36:30;;;;;;;6.22;1.00;;;15.70;99.90;;;;;;5011897;28;20084;-79
2023/07/03 01:38:59;;;;;;;;;;;15.70;99.90;;;;;;5020539;28;20025;-79
2023/07/03 01:41:28;;;;;;;7.45;1.13;;;15.60;99.90;;;;;;5011010;28;20338;-79
2023/07/03 01:43:53;;;;;;;12.20;1.50;;;15.60;99.90;;;;;;5030249;28;20578;-79
2023/07/03 01:46:37;;;;;;;13.88;1.30;;;15.60;99.90;;;;;;5012484;28;20030;-79
2023/07/03 01:49:04;;;;;;;8.32;1.00;;;15.60;99.90;;;;;;5037703;28;20025;-79
2023/07/03 01:51:39;;;;;;;8.48;1.35;;;15.60;99.90;;;;;;5027859;28;20036;-80
2023/07/03 01:54:11;;;;;;;13.15;1.65;;;15.50;99.90;;;;;;5011240;28;20025;-80
2023/07/03 01:56:41;;;;;;;8.88;1.40;;;15.50;99.90;;;;;;5011335;28;20050;-79
2023/07/03 01:59:13;;;;;;;5.82;0.98;;;15.50;99.90;;;;;;5009404;28;20063;-80
2023/07/03 02:01:59;;;;;;;9.55;1.52;;;15.40;99.90;;;;;;5008423;28;20053;-79
2023/07/03 02:04:31;;;;;;;7.80;1.33;;;15.40;99.90;;;;;;5025307;28;20056;-79
2023/07/03 02:06:58;;;;;;;6.47;1.02;;;15.30;99.90;;;;;;5023154;28;20466;-79
2023/07/03 02:09:25;;;;;;;12.50;1.15;;;15.30;99.90;;;;;;5009373;28;20033;-79
2023/07/03 02:11:52;;;;;;;8.98;1.40;;;15.20;99.90;;;;;;5021365;28;20032;-79
2023/07/03 02:14:18;;;;;;;7.72;1.00;;;15.20;99.90;;;;;;5023056;28;20025;-79
2023/07/03 02:16:47;;;;;;;8.05;1.10;;;15.30;99.90;;;;;;5023706;28;20544;-78
2023/07/03 02:19:15;;;;;;;6.32;0.70;;;15.30;99.90;;;;;;5028254;28;20029;-78
2023/07/03 02:21:43;;;;;;;8.07;1.17;;;15.30;99.90;;;;;;5002579;28;20029;-79
2023/07/03 02:24:11;;;;;;;12.30;1.73;;;15.30;99.90;;;;;;5010757;28;20034;-77
2023/07/03 02:26:40;;;;;;;7.45;0.82;;;15.30;99.90;;;;;;5004271;28;20025;-79
2023/07/03 02:29:05;;;;;;;6.20;0.95;;;15.30;99.90;;;;;;5006110;28;20030;-79
2023/07/03 02:31:31;;;;;;;7.85;1.27;;;15.30;99.90;;;;;;5022370;28;20126;-79
2023/07/03 02:33:57;;;;;;;5.53;0.88;;;15.30;99.90;;;;;;5021693;28;20022;-79
2023/07/03 02:36:25;;;;;;;8.52;1.35;;;15.30;99.90;;;;;;5023808;28;20486;-78
2023/07/03 02:38:50;;;;;;;9.15;1.63;;;15.20;99.90;;;;;;5005287;28;20067;-79
2023/07/03 02:41:21;;;;;;;7.85;1.15;;;15.30;99.90;;;;;;5018714;28;20464;-79
2023/07/03 02:43:46;;;;;;;10.50;1.58;;;15.20;99.90;;;;;;5010114;28;20489;-79
2023/07/03 02:46:12;;;;;;;9.15;1.13;;;15.20;99.90;;;;;;5006704;28;20029;-79
2023/07/03 02:48:39;;;;;;;9.80;1.90;;;15.20;99.90;;;;;;5024289;28;20030;-79
2023/07/03 02:51:06;;;;;;;9.05;1.45;;;15.20;99.90;;;;;;5017315;28;20034;-79
2023/07/03 02:53:33;;;;;;;9.73;1.40;;;15.20;99.90;;;;;;5006725;28;20168;-79
2023/07/03 02:56:05;;;;;;;5.45;0.80;;;15.20;99.90;;;;;;5026771;28;20493;-79
2023/07/03 02:58:32;;;;;;;14.13;1.50;;;15.20;99.90;;;;;;5027307;28;20033;-79
2023/07/03 03:00:58;;;;;;;9.52;1.42;;;15.20;99.90;;;;;;5012155;28;20030;-79
2023/07/03 03:03:24;;;;;;;11.68;1.40;;;15.20;99.90;;;;;;5026852;28;20071;-79
2023/07/03 03:05:50;;;;;;;13.25;1.85;;;15.20;99.90;;;;;;5004778;28;20037;-79
2023/07/03 03:08:16;;;;;;;11.68;1.70;;;15.20;99.90;;;;;;5018737;28;20033;-80
2023/07/03 03:10:43;;;;;;;12.60;1.70;;;15.20;99.90;;;;;;5021929;28;20117;-79
2023/07/03 03:13:09;;;;;;;13.65;1.50;;;15.20;99.90;;;;;;5018540;28;20379;-79
2023/07/03 03:15:36;;;;;;;13.45;1.55;;;15.20;99.90;;;;;;5025940;28;20095;-80
2023/07/03 03:18:02;;;;;;;15.05;2.38;;;15.20;99.90;;;;;;5030675;28;20065;-80
2023/07/03 03:20:28;;;;;;;13.00;2.72;;;15.10;99.90;;;;;;5033478;28;20321;-79
2023/07/03 03:22:53;;;;;;;15.90;2.35;;;15.20;99.90;;;;;;5030683;28;20108;-79
2023/07/03 03:25:19;;;;;;;13.77;1.83;;;15.10;99.90;;;;;;5022291;28;20259;-80
2023/07/03 03:27:45;;;;;;;16.50;1.52;;;15.10;99.90;;;;;;5018514;28;20474;-79
2023/07/03 03:30:12;;;;;;;16.38;2.85;;;15.10;99.90;;;;;;5005371;28;20305;-79
2023/07/03 03:32:40;;;;;;;10.35;1.73;;;15.10;99.90;;;;;;5022761;28;20482;-79
2023/07/03 03:35:06;;;;;;;10.75;1.65;;;15.10;99.90;;;;;;5022977;28;20364;-79
2023/07/03 03:37:32;;;;;;;16.35;2.70;;;15.10;99.90;;;;;;5002795;28;20022;-80
2023/07/03 03:40:00;;;;;;;13.15;2.08;;;15.10;99.90;;;;;;5023900;28;20488;-79
2023/07/03 03:42:26;;;;;;;15.48;2.63;;;15.10;99.90;;;;;;5006118;28;20021;-78
2023/07/03 03:44:52;;;;;;;18.02;2.58;;;15.10;99.90;;;;;;5008617;28;20130;-80
2023/07/03 03:47:19;;;;;;;17.00;2.45;;;15.10;99.90;;;;;;5009842;28;20061;-79
2023/07/03 03:49:45;;;;;;;14.80;2.10;;;15.10;99.90;;;;;;5007528;28;20117;-79
2023/07/03 03:52:11;;;;;;;16.80;2.28;;;15.10;99.90;;;;;;5022249;28;20033;-79
2023/07/03 03:54:37;;;;;;;17.90;2.15;;;15.10;99.90;;;;;;5009378;28;20724;-79
2023/07/03 03:57:05;;;;;;;12.18;2.15;;;15.10;99.90;;;;;;5008107;28;20425;-79
2023/07/03 03:59:31;;;;;;;8.10;1.20;;;15.10;99.90;;;;;;5025619;28;20025;-79
2023/07/03 04:01:57;;;;;;;12.73;1.98;;;15.10;99.90;;;;;;5001445;28;20542;-80
2023/07/03 04:04:24;;;;;;;16.48;2.88;;;15.10;99.90;;;;;;5023175;28;20092;-79
2023/07/03 04:06:52;;;;;;;17.92;3.25;;;15.10;99.90;;;;;;5018737;28;20029;-78
2023/07/03 04:09:18;;;;;;;13.35;1.88;;;15.10;99.90;;;;;;5004013;28;20033;-79
2023/07/03 04:11:43;;;;;;;11.15;1.27;;;15.10;99.90;;;;;;5006319;28;20025;-80
2023/07/03 04:14:09;;;;;;;15.65;2.83;;;15.10;99.90;;;;;;5009004;28;20069;-79
2023/07/03 04:16:35;;;;;;;17.15;1.95;;;15.10;99.90;;;;;;5006851;28;20057;-80
2023/07/03 04:19:01;;;;;;;16.17;2.70;;;15.10;99.90;;;;;;5036593;28;20487;-79
2023/07/03 04:21:27;;;;;;;11.63;1.58;;;15.10;99.90;;;;;;5008036;28;20149;-79
2023/07/03 04:23:53;;;;;;;13.88;1.70;;;15.10;99.90;;;;;;5026224;28;20254;-80
2023/07/03 04:26:20;;;;;;;14.13;2.15;;;15.20;99.90;;;;;;5023761;28;20112;-80
2023/07/03 04:28:45;;;;;;;20.48;2.75;;;15.10;99.90;;;;;;5008418;28;20036;-79
2023/07/03 04:31:11;;;;;;;14.68;2.88;;;15.10;99.90;;;;;;5006887;28;20041;-78
2023/07/03 04:33:37;;;;;;;19.30;2.42;;;15.10;99.90;;;;;;5019964;28;20243;-80
2023/07/03 04:36:03;;;;;;;15.05;2.17;;;15.10;99.90;;;;;;5017088;28;20521;-78
2023/07/03 04:38:28;;;;;;;19.08;2.85;;;15.10;99.90;;;;;;5007119;28;20041;-80
2023/07/03 04:40:54;;;;;;;17.30;2.17;;;15.10;99.90;;;;;;5025000;28;20032;-79
2023/07/03 04:43:21;;;;;;;19.13;2.83;;;15.10;99.90;;;;;;5004058;28;20443;-79
2023/07/03 04:45:48;;;;;;;12.95;1.90;;;15.00;99.90;;;;;;5016063;28;20521;-79
2023/07/03 04:48:16;;;;;;;15.55;2.05;;;15.00;99.90;;;;;;5023650;28;20441;-79
2023/07/03 04:50:42;;;;;;;23.35;3.13;;;15.00;99.90;;;;;;5002734;28;20041;-80
2023/07/03 04:53:08;;;;;;;20.98;3.70;;;14.90;99.90;;;;;;5020128;28;20488;-79
2023/07/03 04:55:35;;;;;;;13.98;2.13;;;14.90;99.90;;;;;;5022562;28;20065;-80
2023/07/03 04:58:02;;;;;;;24.67;3.97;;;14.90;99.90;;;;;;5012712;28;20037;-79
2023/07/03 05:00:28;;;;;;;18.67;2.45;;;14.90;99.90;;;;;;5026833;28;20026;-79
2023/07/03 05:02:58;;;;;;;15.82;2.85;;;14.90;99.90;;;;;;5020956;28;20072;-80
2023/07/03 05:05:24;;;;;;;;;;;15.00;99.90;;;;;;5027794;28;20068;-79
2023/07/03 05:07:50;;;;;;;16.48;2.75;;;15.00;99.90;;;;;;5021563;28;19910;-79
2023/07/03 05:10:17;;;;;;;14.95;2.60;;;15.00;99.90;;;;;;5009774;28;20128;-80
2023/07/03 05:12:44;;;;;;;19.95;2.78;;;15.20;99.90;;;;;;5010718;28;20148;-79
2023/07/03 05:15:12;;;;;;;16.02;3.10;;;15.30;99.90;;;;;;5010643;28;20390;-79
2023/07/03 05:17:38;;;;;;;20.58;2.75;;;15.10;99.90;;;;;;5031927;28;20029;-80
2023/07/03 05:20:13;;;;;;;16.30;2.70;;;15.10;99.90;;;;;;5008516;28;20033;-79
2023/07/03 05:22:40;;;;;;;18.15;2.83;;;15.20;99.90;;;;;;5018849;28;20025;-80
2023/07/03 05:25:07;;;;;;;22.05;3.15;;;15.10;99.90;;;;;;5012368;28;20037;-79
2023/07/03 05:27:34;;;;;;;18.95;2.53;;;15.10;99.90;;;;;;5008986;28;20041;-80
2023/07/03 05:30:00;;;;;;;18.05;3.20;;;15.10;99.90;;;;;;5024347;28;20471;-80
2023/07/03 05:32:25;;;;;;;21.52;2.88;;;15.10;99.90;;;;;;5005556;28;20034;-80
2023/07/03 05:34:51;;;;;;;14.20;2.03;;;15.10;99.90;;;;;;5026592;28;20120;-80
2023/07/03 05:37:18;;;;;;;14.35;2.45;;;15.10;99.90;;;;;;5010105;28;20030;-79
2023/07/03 05:39:47;;;;;;;21.50;2.85;;;15.20;99.90;;;;;;5020596;28;20033;-80
2023/07/03 05:42:14;;;;;;;19.60;3.70;;;15.00;99.90;;;;;;5020879;28;20508;-79
2023/07/03 05:44:40;;;;;;;19.25;3.22;;;15.10;99.90;;;;;;5006775;28;20065;-80
2023/07/03 05:47:06;;;;;;;19.65;3.28;;;15.10;99.90;;;;;;5014006;28;20033;-80
2023/07/03 05:49:32;;;;;;;17.48;2.83;;;15.20;99.90;;;;;;5020975;28;20087;-80
2023/07/03 05:51:57;;;;;;;19.17;3.35;;;15.20;99.90;;;;;;5021896;28;20033;-80
2023/07/03 05:54:23;;;;;;;21.25;3.55;;;15.20;99.90;;;;;;5026985;28;20034;-80
2023/07/03 05:57:07;;;;;;;21.08;2.67;;;15.30;99.90;;;;;;5022946;28;20056;-80
2023/07/03 05:59:34;;;;;;;13.52;2.13;;;15.20;99.90;;;;;;5025980;28;20083;-79
2023/07/03 06:02:01;;;;;;;22.00;3.50;;;15.40;99.90;;;;;;5009427;28;20132;-81
2023/07/03 06:04:27;;;;;;;20.42;2.42;;;15.30;99.90;;;;;;5028273;28;20510;-79
2023/07/03 06:06:57;;;;;;;19.65;2.95;;;15.30;99.90;;;;;;5022906;28;20025;-80
2023/07/03 06:09:24;;;;;;;16.20;2.42;;;15.40;99.90;;;;;;5008383;28;20029;-80
2023/07/03 06:11:50;;;;;;;12.73;1.92;;;15.40;99.90;;;;;;5022996;28;20058;-79
2023/07/03 06:14:17;;;;;;;22.00;3.58;;;15.70;99.90;;;;;;5006172;28;20079;-80
2023/07/03 06:16:44;;;;;;;14.45;2.70;;;15.80;99.90;;;;;;5024756;28;20029;-80
2023/07/03 06:19:12;;;;;;;17.95;3.17;;;15.90;99.90;;;;;;5028302;28;20032;-80
2023/07/03 06:21:38;;;;;;;11.18;1.83;;;16.20;99.90;;;;;;5017339;28;20029;-80
2023/07/03 06:24:08;;;;;;;19.40;3.80;;;16.40;99.90;;;;;;5023852;28;20026;-80
2023/07/03 06:26:34;;;;;;;15.48;2.92;;;16.40;99.90;;;;;;5003575;28;20339;-81
2023/07/03 06:29:03;;;;;;;13.13;2.30;;;16.40;99.90;;;;;;5021227;28;20033;-81
2023/07/03 06:31:29;;;;;;;11.10;2.27;;;16.60;99.90;;;;;;5004590;28;20041;-80
2023/07/03 06:33:55;;;;;;;13.38;2.67;;;16.40;99.90;;;;;;5007557;28;20088;-80
2023/07/03 06:36:23;;;;;;;11.40;1.75;;;16.30;99.90;;;;;;5024357;28;20041;-81
2023/07/03 06:38:53;;;;;;;14.25;2.22;;;16.40;99.90;;;;;;5030321;28;20025;-80
2023/07/03 06:41:20;;;;;;;19.67;3.10;;;16.20;99.90;;;;;;5024130;28;20029;-81
2023/07/03 06:43:45;;;;;;;18.02;2.80;;;16.20;99.90;;;;;;5021299;28;20049;-80
2023/07/03 06:46:17;;;;;;;14.60;2.17;;;15.90;99.90;;;;;;5020248;28;20041;-82
2023/07/03 06:48:44;;;;;;;12.13;2.33;;;16.10;99.90;;;;;;5008894;28;20026;-80
2023/07/03 06:51:12;;;;;;;18.40;2.10;;;16.30;99.90;;;;;;5022497;28;20124;-81
2023/07/03 06:53:38;;;;;;;10.30;1.75;;;16.40;99.90;;;;;;5020675;28;20486;-80
2023/07/03 06:56:05;;;;;;;14.13;2.47;;;16.50;99.90;;;;;;4998260;28;20129;-81
2023/07/03 06:58:32;;;;;;;18.60;2.03;;;16.30;99.90;;;;;;4999803;28;20474;-80
2023/07/03 07:01:04;;;;;;;14.70;2.42;;;16.30;99.90;;;;;;4999236;28;20471;-79
2023/07/03 07:03:30;;;;;;;13.82;2.08;;;16.50;99.90;;;;;;5017246;28;20025;-81
2023/07/03 07:05:56;;;;;;;9.65;1.52;;;16.70;99.90;;;;;;5003478;28;20043;-80
2023/07/03 07:08:22;;;;;;;14.88;2.78;;;16.90;99.90;;;;;;4994660;28;20034;-80
2023/07/03 07:10:48;;;;;;;22.58;3.20;;;17.00;99.90;;;;;;5005905;28;20570;-81
2023/07/03 07:13:16;;;;;;;13.75;2.17;;;16.60;99.90;;;;;;4996474;28;20022;-80
2023/07/03 07:15:41;;;;;;;11.90;1.77;;;16.70;99.90;;;;;;4999512;28;20438;-80
2023/07/03 07:18:09;;;;;;;13.98;2.15;;;17.00;99.90;;;;;;5016842;28;20060;-81
2023/07/03 07:20:39;;;;;;;12.40;2.00;;;17.20;99.90;;;;;;5018455;28;20056;-80
2023/07/03 07:23:07;;;;;;;11.13;2.00;;;17.30;99.90;;;;;;5017110;28;20033;-82
2023/07/03 07:25:33;;;;;;;15.82;2.60;;;17.20;99.90;;;;;;5001265;28;20474;-81
2023/07/03 07:27:59;;;;;;;8.82;1.30;;;17.20;99.90;;;;;;4999753;28;20054;-80
2023/07/03 07:30:25;;;;;;;11.65;1.65;;;17.50;99.90;;;;;;5017521;28;20064;-80
2023/07/03 07:32:51;;;;;;;14.27;2.10;;;17.40;99.90;;;;;;5015855;28;20467;-81
2023/07/03 07:35:17;;;;;;;13.82;2.47;;;17.10;99.90;;;;;;5003509;28;20034;-81
2023/07/03 07:37:43;;;;;;;11.63;1.70;;;16.90;99.90;;;;;;5016502;28;20065;-80
2023/07/03 07:40:10;;;;;;;13.57;2.25;;;16.80;99.90;;;;;;5000389;28;20052;-82
2023/07/03 07:42:36;;;;;;;12.73;2.08;;;16.80;99.90;;;;;;5017913;28;20029;-81
2023/07/03 07:45:03;;;;;;;14.45;1.98;;;16.80;99.90;;;;;;5014680;28;20046;-81
2023/07/03 07:47:29;;;;;;;13.20;2.13;;;16.80;99.90;;;;;;4999966;28;20476;-81
2023/07/03 07:49:55;;;;;;;12.05;1.70;;;16.90;99.90;;;;;;4997243;28;20590;-81
2023/07/03 07:52:23;;;;;;;13.20;2.17;;;16.90;99.90;;;;;;4997425;28;20120;-82
2023/07/03 07:54:54;;;;;;;16.27;2.58;;;16.80;99.90;;;;;;5013925;28;20030;-81
2023/07/03 07:57:20;;;;;;;13.32;1.58;;;16.90;99.90;;;;;;5014724;28;20089;-80
2023/07/03 07:59:45;;;;;;;12.25;2.08;;;17.10;99.90;;;;;;5016910;28;20068;-80
2023/07/03 08:02:11;;;;;;;9.15;1.48;;;17.20;99.90;;;;;;4999024;28;20555;-80
2023/07/03 08:04:37;;;;;;;11.73;1.00;;;17.20;99.90;;;;;;5001351;28;20044;-80
2023/07/03 08:07:03;;;;;;;8.52;1.17;;;17.30;99.90;;;;;;5014481;28;20026;-81
2023/07/03 08:09:28;;;;;;;9.27;1.23;;;17.30;99.90;;;;;;5015873;28;20395;-81
2023/07/03 08:11:54;;;;;;;7.15;1.02;;;17.40;99.90;;;;;;5029838;28;20108;-80
2023/07/03 08:14:20;;;;;;;14.25;2.03;;;17.50;99.90;;;;;;4996914;28;20410;-81
2023/07/03 08:16:46;;;;;;;11.70;1.42;;;17.40;99.90;;;;;;5000156;28;20502;-80
2023/07/03 08:19:11;;;;;;;14.30;1.90;;;17.70;99.90;;;;;;4997941;28;20022;-81
2023/07/03 08:21:37;;;;;;;15.32;2.30;;;17.60;99.90;;;;;;5017009;28;20072;-81
2023/07/03 08:24:03;;;;;;;16.23;1.73;;;17.70;99.90;;;;;;4997275;28;20025;-81
2023/07/03 08:26:30;;;;;;;11.10;1.60;;;17.40;99.90;;;;;;5001018;28;20064;-80
2023/07/03 08:28:55;;;;;;;10.40;1.42;;;18.00;99.90;;;;;;5012583;28;20041;-79
2023/07/03 08:31:21;;;;;;;14.23;2.17;;;18.50;99.90;;;;;;4994261;28;20711;-82
2023/07/03 08:33:47;;;;;;;13.38;1.48;;;18.20;99.90;;;;;;5016681;28;20025;-80
2023/07/03 08:36:13;;;;;;;11.57;1.40;;;18.10;99.90;;;;;;4992319;28;20381;-81
2023/07/03 08:38:39;;;;;;;9.05;1.33;;;18.30;99.90;;;;;;5016259;28;20026;-81
2023/07/03 08:41:05;;;;;;;12.30;1.58;;;19.20;99.90;;;;;;5002236;28;20084;-81
2023/07/03 08:43:37;;;;;;;10.93;2.08;;;19.00;99.90;;;;;;4996897;28;20034;-79
2023/07/03 08:46:06;;;;;;;11.48;1.60;;;19.40;99.90;;;;;;5014102;28;20045;-80
2023/07/03 08:48:34;;;;;;;8.10;1.17;;;18.70;99.90;;;;;;5000979;28;20053;-81
2023/07/03 08:51:03;;;;;;;12.50;1.27;;;19.00;99.90;;;;;;5016747;28;20030;-81
2023/07/03 08:53:41;;;;;;;10.32;1.27;;;19.20;99.90;;;;;;5001133;28;20033;-81
2023/07/03 08:56:09;;;;;;;10.25;0.95;;;19.00;99.90;;;;;;5017052;28;20574;-82
2023/07/03 08:58:35;;;;;;;8.02;1.17;;;18.60;99.90;;;;;;5020026;28;20021;-81
2023/07/03 09:01:12;;;;;;;8.00;0.90;;;19.50;99.90;;;;;;4999834;28;20038;-81
2023/07/03 09:03:44;;;;;;;9.50;1.38;;;19.70;99.90;;;;;;4994021;28;20625;-81
2023/07/03 09:06:21;;;;;;;8.68;1.15;;;19.40;99.90;;;;;;4993667;28;20048;-82
2023/07/03 09:09:07;;;;;;;13.32;1.40;;;19.70;99.90;;;;;;5010969;28;20148;-80
2023/07/03 09:11:38;;;;;;;8.73;0.90;;;18.50;99.90;;;;;;5010265;28;20088;-82
2023/07/03 09:14:09;;;;;;;12.25;1.70;;;18.40;99.90;;;;;;4999082;28;20034;-81
2023/07/03 09:16:38;;;;;;;8.82;1.67;;;18.10;99.90;;;;;;4997387;28;20050;-81
2023/07/03 09:19:16;;;;;;;7.20;1.48;;;18.30;99.90;;;;;;4999630;28;20066;-81
2023/07/03 09:21:44;;;;;;;9.18;1.05;;;18.40;99.90;;;;;;5012788;28;20057;-80
2023/07/03 09:24:20;;;;;;;10.02;1.10;;;19.30;99.90;;;;;;4998268;28;20026;-81
2023/07/03 09:27:09;;;;;;;8.35;1.15;;;19.80;99.90;;;;;;5002343;28;20125;-81
2023/07/03 09:29:37;;;;;;;7.73;1.20;;;20.00;99.90;;;;;;5000238;28;20536;-80
2023/07/03 09:32:03;;;;;;;8.77;1.08;;;19.60;99.90;;;;;;5003511;28;20036;-82
2023/07/03 09:35:07;;;;;;;6.95;1.00;;;20.00;99.90;;;;;;5011060;28;20057;-81
2023/07/03 09:37:38;;;;;;;8.63;1.25;;;20.60;99.90;;;;;;4999820;28;20113;-81
2023/07/03 09:40:09;;;;;;;5.60;1.05;;;20.70;99.90;;;;;;5003695;28;20033;-81
2023/07/03 09:42:35;;;;;;;8.50;1.00;;;20.70;99.90;;;;;;5007408;28;20474;-81
2023/07/03 09:45:03;;;;;;;9.27;1.00;;;19.70;99.90;;;;;;5020850;28;20517;-81
2023/07/03 09:47:29;;;;;;;7.00;0.98;;;18.90;99.90;;;;;;4995309;28;20225;-80
2023/07/03 09:50:03;;;;;;;9.98;1.80;;;18.70;99.90;;;;;;5001672;28;20120;-81
2023/07/03 09:52:28;;;;;;;9.00;1.27;;;18.30;99.90;;;;;;5016891;28;20113;-81
2023/07/03 09:55:00;;;;;;;8.95;1.13;;;18.30;99.90;;;;;;5000584;28;20117;-81
2023/07/03 09:57:28;;;;;;;7.18;1.10;;;18.20;99.90;;;;;;5002333;28;20033;-80
2023/07/03 10:00:07;;;;;;;6.75;1.15;;;18.70;99.90;;;;;;5015752;28;20363;-81
2023/07/03 10:02:35;;;;;;;7.75;1.05;;;18.80;99.90;;;;;;5012914;28;20126;-81
2023/07/03 10:05:01;;;;;;;6.05;1.02;;;18.50;99.90;;;;;;4999483;28;20465;-80
2023/07/03 10:07:32;;;;;;;6.53;1.00;;;18.90;99.90;;;;;;5017803;28;20026;-80
2023/07/03 10:09:58;;;;;;;9.77;1.50;;;18.80;99.90;;;;;;5021225;28;20044;-80
2023/07/03 10:12:41;;;;;;;8.68;0.98;;;19.40;99.90;;;;;;5018428;28;20041;-81
2023/07/03 10:15:12;;;;;;;6.82;1.13;;;20.20;99.90;;;;;;5020665;28;20097;-80
2023/07/03 10:17:45;;;;;;;9.27;0.80;;;20.50;99.90;;;;;;5013073;28;20046;-81
2023/07/03 10:20:20;;;;;;;7.10;1.17;;;20.40;99.90;;;;;;5002311;28;20026;-81
2023/07/03 10:22:49;;;;;;;9.60;0.98;;;19.40;99.90;;;;;;5015085;28;20049;-81
2023/07/03 10:25:20;;;;;;;6.80;0.90;;;18.90;99.90;;;;;;5017775;28;20443;-81
2023/07/03 10:27:47;;;;;;;9.48;0.95;;;18.60;99.90;;;;;;5019223;28;20037;-81
2023/07/03 10:30:15;;;;;;;9.32;0.85;;;18.50;99.90;;;;;;4999380;28;20033;-81
2023/07/03 10:32:46;;;;;;;11.93;1.10;;;18.30;99.90;;;;;;5000237;28;20036;-81
2023/07/03 10:35:27;;;;;;;5.45;0.70;;;18.30;99.90;;;;;;5018428;28;20099;-81
2023/07/03 10:38:19;;;;;;;11.05;1.30;;;18.10;99.90;;;;;;5031592;28;20025;-81
2023/07/03 10:41:23;;;;;;;8.70;0.60;;;18.20;99.90;;;;;;4996242;28;20029;-81
2023/07/03 10:43:54;;;;;;;4.43;0.50;;;18.40;99.90;;;;;;5016468;28;20030;-80
2023/07/03 10:46:38;;;;;;;5.90;0.60;;;18.60;99.90;;;;;;4998234;28;20045;-81
2023/07/03 10:49:08;;;;;;;6.05;0.60;;;18.80;99.90;;;;;;4999865;28;20064;-81
2023/07/03 10:51:39;;;;;;;4.60;0.50;;;19.10;99.90;;;;;;5018372;28;20057;-81
2023/07/03 10:54:14;;;;;;;6.57;0.50;;;19.10;99.90;;;;;;5021452;28;20054;-80
2023/07/03 10:56:47;;;;;;;4.57;0.40;;;19.40;99.90;;;;;;4998340;28;20049;-80
2023/07/03 10:59:17;;;;;;;3.50;0.47;;;20.50;99.90;;;;;;5014440;28;20458;-81
2023/07/03 11:02:02;;;;;;;4.68;0.50;;;21.30;99.90;;;;;;5004875;28;20135;-81
2023/07/03 11:05:08;;;;;;;4.57;0.50;;;21.30;99.90;;;;;;5014985;28;20052;-82
2023/07/03 11:07:45;;;;;;;5.05;0.70;;;21.50;99.90;;;;;;4995070;28;20090;-81
2023/07/03 11:10:14;;;;;;;4.03;0.50;;;21.20;99.90;;;;;;5016257;28;20030;-81
2023/07/03 11:12:51;;;;;;;5.38;0.80;;;21.30;99.90;;;;;;5013685;28;20029;-80
2023/07/03 11:15:27;;;;;;;4.55;0.50;;;21.40;99.90;;;;;;5014644;28;20471;-82
2023/07/03 11:18:04;;;;;;;4.28;0.50;;;22.00;99.90;;;;;;5014299;28;20075;-81
2023/07/03 11:21:03;;;;;;;4.00;0.50;;;22.10;99.90;;;;;;5002321;28;20663;-83
2023/07/03 11:23:37;;;;;;;3.88;0.50;;;21.00;99.90;;;;;;4925857;29;20042;-83
2023/07/03 11:26:16;;;;;;;5.40;0.70;;;21.20;99.90;;;;;;4940958;29;20051;-82
2023/07/03 11:28:47;;;;;;;5.95;0.50;;;20.50;99.90;;;;;;4926363;29;20453;-82
2023/07/03 11:31:14;;;;;;;6.03;0.55;;;20.00;99.90;;;;;;4940043;29;20027;-82
2023/07/03 11:33:42;;;;;;;6.80;0.95;;;19.70;99.90;;;;;;4941140;29;20468;-81
2023/07/03 11:36:34;;;;;;;5.10;0.50;;;20.00;99.90;;;;;;4940073;29;20419;-82
2023/07/03 11:39:19;;;;;;;6.40;0.60;;;20.10;99.90;;;;;;4911063;29;20031;-82
2023/07/03 11:41:53;;;;;;;6.50;0.63;;;19.90;99.90;;;;;;4911151;29;20031;-82
2023/07/03 11:44:30;;;;;;;6.65;0.50;;;20.10;99.90;;;;;;4927428;29;20043;-82
2023/07/03 11:47:03;;;;;;;5.18;0.50;;;20.40;99.90;;;;;;4911440;29;20039;-83
2023/07/03 11:49:32;;;;;;;6.28;0.50;;;19.60;99.90;;;;;;4924181;29;20031;-81
2023/07/03 11:52:01;;;;;;;9.75;0.80;;;19.40;99.90;;;;;;4909553;29;20144;-82
2023/07/03 11:54:29;;;;;;;7.30;0.70;;;19.70;99.90;;;;;;4927354;29;20043;-81
2023/07/03 11:57:50;;;;;;;8.07;0.82;;;19.70;99.90;;;;;;4925131;28;20031;-80
2023/07/03 12:00:30;;;;;;;8.05;0.60;;;19.90;99.90;;;;;;4913472;28;20037;-81
2023/07/03 12:03:05;;;;;;;7.93;0.75;;;20.70;99.90;;;;;;5020648;28;20046;-81
2023/07/03 12:05:45;;;;;;;7.40;0.68;;;20.40;99.90;;;;;;4997330;28;20038;-82
2023/07/03 12:08:12;;;;;;;6.25;0.82;;;20.50;99.90;;;;;;5013162;28;20105;-82
2023/07/03 12:10:42;;;;;;;7.45;1.00;;;20.20;99.90;;;;;;5018258;28;20029;-81
2023/07/03 12:13:34;;;;;;;7.00;0.60;;;20.30;99.90;;;;;;4998255;28;20145;-81
2023/07/03 12:16:03;;;;;;;7.88;0.73;;;19.90;99.90;;;;;;5012370;28;20030;-81
2023/07/03 12:18:29;;;;;;;6.70;0.70;;;20.00;99.90;;;;;;4996015;28;20074;-82
2023/07/03 12:21:00;;;;;;;2.97;0.50;;;19.40;99.90;;;;;;5014232;28;20034;-81
2023/07/03 12:23:45;;;;;;;5.88;0.65;;;19.10;99.90;;;;;;5016563;28;20034;-81
2023/07/03 12:26:13;;;;;;;6.97;0.98;;;19.10;99.90;;;;;;5001124;28;20140;-81
2023/07/03 12:28:41;;;;;;;6.32;0.70;;;18.90;99.90;;;;;;4995819;28;20029;-81
2023/07/03 12:31:33;;;;;;;8.55;0.88;;;18.70;99.90;;;;;;5009697;28;20600;-80
2023/07/03 12:34:00;;;;;;;7.65;0.77;;;18.70;99.90;;;;;;5009174;28;20080;-82
2023/07/03 12:36:32;;;;;;;5.50;0.70;;;19.20;99.90;;;;;;5014116;28;20655;-81
2023/07/03 12:39:00;;;;;;;6.35;0.68;;;19.60;99.90;;;;;;5021580;28;20112;-81
2023/07/03 12:41:30;;;;;;;10.35;0.70;;;20.10;99.90;;;;;;5002627;28;20026;-81
2023/07/03 12:43:56;;;;;;;7.00;0.73;;;20.20;99.90;;;;;;5012889;28;20030;-82
2023/07/03 12:46:31;;;;;;;5.43;0.50;;;19.80;99.90;;;;;;4999716;28;20077;-81
2023/07/03 12:49:03;;;;;;;6.47;0.80;;;20.30;99.90;;;;;;5014420;28;20037;-80
2023/07/03 12:51:28;;;;;;;5.18;0.52;;;19.80;99.90;;;;;;5012416;28;20029;-82
2023/07/03 12:53:54;;;;;;;5.03;0.50;;;19.60;99.90;;;;;;5015893;28;20040;-81